• Join FlightAware (Why Join?)
  • Login
  • US Flag 
02:21AM EDT


 

Airport Tracker/Info


-or-


 

Live Flight TrackerFlight Track Log ✈ SWA1910 ✈ 07-Apr-2013 ✈ KFLL - KBUF

Flight Track Log - Related Links

Times and Time Zones

All times are in EDT time to prevent confusion due to time zone crossing. See the SWA1910 flight status page for this flight to view local times or setup timezone preferences in your user account.

Time Position Orientation Groundspeed Altitude Reporting Facility
EDT Latitude Longitude Course Direction KTS MPH feet Rate Location/Type
02:10PM 26.0750 -80.1389 75° East 105 121 900  Level Miami Center
02:10PM 26.0817 -80.1114 75° East 154 177 1,700 1,740 Climbing Miami Center
02:11PM 26.0803 -80.0836 93° East 205 236 2,700 2,280 Climbing Miami Center
02:11PM 26.0853 -80.0514 80° East 201 231 4,000 1,980 Climbing Miami Center
02:12PM 26.0839 -80.0119 92° East 242 278 4,800 1,980 Climbing Miami Center
02:12PM 26.0931 -79.9753 74° East 272 313 6,000 3,060 Climbing Miami Center
02:13PM 26.1364 -79.9022 57° Northeast 272 313 9,300 2,700 Climbing Miami Center
02:14PM 26.1778 -79.8178 61° Northeast 287 330 11,500 2,520 Climbing Miami Center
02:15PM 26.2278 -79.7242 59° Northeast 320 368 14,400 2,700 Climbing Miami Center
02:16PM 26.2753 -79.6347 59° Northeast 338 389 16,900 2,520 Climbing Miami Center
02:17PM 26.3525 -79.5322 50° Northeast 382 440 19,500 2,340 Climbing Miami Center
02:18PM 26.4453 -79.4811 26° Northeast 394 453 21,600 1,800 Climbing Miami Center
02:19PM 26.5656 -79.4139 27° Northeast 419 482 23,100 1,680 Climbing Miami Center
02:20PM 26.6625 -79.3603 26° Northeast 424 488 25,000 1,920 Climbing Miami Center
02:21PM 26.7869 -79.2931 26° Northeast 434 499 27,000 1,800 Climbing Miami Center
02:22PM 26.9050 -79.2281 26° Northeast 449 517 28,600 1,500 Climbing Miami Center
02:23PM 27.0192 -79.1486 32° Northeast 460 529 30,100 1,620 Climbing Miami Center
02:24PM 27.1311 -79.0644 34° Northeast 479 551 31,900 1,740 Climbing Miami Center
02:25PM 27.2431 -78.9708 37° Northeast 502 578 33,600 1,500 Climbing Miami Center
02:26PM 27.3447 -78.8886 36° Northeast 495 570 35,000 1,440 Climbing Miami Center
02:27PM 27.4661 -78.8533 14° North 458 527 36,500 960 Climbing Miami Center
02:28PM 27.5981 -78.8369 North 447 514 37,000 240 Climbing Miami Center
02:29PM 27.7214 -78.8203 North 447 514 37,000  Level Miami Center
02:30PM 27.8322 -78.8056 North 442 509 37,000  Level Miami Center
02:31PM 27.9494 -78.7911 North 436 502 37,000  Level Miami Center
02:32PM 28.0750 -78.7744 North 436 502 37,000  Level Miami Center
02:33PM 28.1919 -78.7575 North 436 502 37,000  Level Miami Center
02:34PM 28.3153 -78.7431 North 436 502 37,000  Level Miami Center
02:35PM 28.4389 -78.7264 North 436 502 37,000  Level Miami Center
02:36PM 28.5600 -78.7094 North 441 507 37,000  Level Miami Center
02:37PM 28.6814 -78.6950 North 446 513 37,000  Level Miami Center
02:38PM 28.8025 -78.6756 North 441 507 37,000  Level Miami Center
02:39PM 28.9300 -78.6611 North 447 514 37,000  Level Miami Center
02:40PM 29.0533 -78.6464 North 442 509 37,000  Level Miami Center
02:41PM 29.1744 -78.6269 North 448 516 37,000  Level Miami Center
02:42PM 29.2978 -78.6100 North 442 509 37,000  Level Miami Center
02:43PM 29.4211 -78.5928 North 449 517 37,000  Level Miami Center
02:44PM 29.5403 -78.5758 North 443 510 37,000  Level Miami Center
02:45PM 29.6636 -78.5586 North 443 510 37,000  Level Miami Center
02:46PM 29.7914 -78.5397 North 445 512 37,000  Level Jacksonville Center
02:47PM 29.9139 -78.5222 North 445 512 37,000  Level Jacksonville Center
02:48PM 30.0408 -78.5067 North 445 512 37,000  Level Jacksonville Center
02:49PM 30.1631 -78.4844 North 452 520 37,000  Level Jacksonville Center
02:50PM 30.2797 -78.4719 North 436 502 37,000  Level Jacksonville Center
02:51PM 30.4106 -78.4539 North 441 507 37,000  Level Jacksonville Center
02:52PM 30.5353 -78.4383 North 441 507 37,000  Level Jacksonville Center
02:53PM 30.6556 -78.4206 North 441 507 37,000  Level Jacksonville Center
02:54PM 30.7781 -78.4003 North 441 507 37,000  Level Jacksonville Center
02:55PM 30.8986 -78.3850 North 441 507 37,000  Level Jacksonville Center
02:56PM 31.0214 -78.3719 North 441 507 37,000  Level Jacksonville Center
02:57PM 31.1478 -78.3489 North 451 519 37,000  Level Jacksonville Center
02:58PM 31.2703 -78.3306 North 442 509 37,000  Level Jacksonville Center
02:59PM 31.3950 -78.3125 North 442 509 37,000  Level Jacksonville Center
03:00PM 31.5194 -78.2942 North 436 502 37,000  Level Jacksonville Center
03:01PM 31.6400 -78.2783 North 446 513 37,000  Level Jacksonville Center
03:02PM 31.7667 -78.2622 North 445 512 37,000  Level Jacksonville Center
03:03PM 31.8744 -78.2397 10° North 445 512 37,000  Level Jacksonville Center
03:04PM 31.9989 -78.2211 North 445 512 37,000  Level Jacksonville Center
03:05PM 32.1236 -78.2028 North 445 512 37,000  Level Jacksonville Center
03:06PM 32.2461 -78.1867 North 440 506 37,000  Level Jacksonville Center
03:07PM 32.3686 -78.1703 North 440 506 37,000  Level Jacksonville Center
03:08PM 32.4911 -78.1517 North 440 506 37,000  Level Jacksonville Center
03:09PM 32.6136 -78.1356 North 440 506 37,000  Level Jacksonville Center
03:10PM 32.7339 -78.1144 North 440 506 37,000  Level Jacksonville Center
03:11PM 32.8522 -78.0981 North 440 506 37,000  Level Jacksonville Center
03:12PM 32.9747 -78.0792 North 440 506 37,000  Level Jacksonville Center
03:13PM 33.0931 -78.0631 North 435 501 37,000  Level Jacksonville Center
03:15PM 33.2894 -78.0333 North 419 482 37,000  Level Washington Center
03:15PM 33.4067 -78.0194 North 419 482 37,000  Level Washington Center
03:16PM 33.5258 -78.0006 North 425 489 37,000  Level Washington Center
03:17PM 33.6453 -77.9814 North 425 489 37,000  Level Washington Center
03:19PM 33.7644 -77.9650 North 425 489 37,000  Level Washington Center
03:19PM 33.8858 -77.9458 North 425 489 37,000  Level Washington Center
03:21PM 34.0092 -77.9267 North 436 502 37,000  Level Washington Center
03:22PM 34.1264 -77.9100 North 436 502 37,000  Level Washington Center
03:23PM 34.2458 -77.8908 North 431 496 37,000  Level Washington Center
03:24PM 34.3567 -77.8761 North 431 496 37,000  Level Washington Center
03:25PM 34.4733 -77.8744 North 426 490 37,000  Level Washington Center
03:26PM 34.5903 -77.8725 North 426 490 37,000  Level Washington Center
03:27PM 34.7092 -77.8733 360° North 421 484 37,000  Level Washington Center
03:27PM 34.8367 -77.8669 North 421 484 37,000  Level Washington Center
03:29PM 34.9556 -77.8653 North 421 484 37,000  Level Washington Center
03:30PM 35.0744 -77.8633 North 421 484 37,000  Level Washington Center
03:31PM 35.1914 -77.8617 North 421 484 37,000  Level Washington Center
03:32PM 35.3106 -77.8600 North 421 484 37,000 480 Level Washington Center
03:33PM 35.4292 -77.8733 355° North 421 484 38,000 900 Climbing Washington Center
03:34PM 35.5478 -77.8844 356° North 421 484 38,900 480 Climbing Washington Center
03:35PM 35.6706 -77.8983 355° North 421 484 39,000  Climbing Washington Center
03:36PM 35.7811 -77.9067 357° North 430 495 39,000  Level Washington Center
03:37PM 35.9019 -77.9153 357° North 435 501 39,000  Level Washington Center
03:38PM 36.0228 -77.9289 355° North 435 501 39,000  Level Washington Center
03:39PM 36.1436 -77.9403 356° North 435 501 39,000  Level Washington Center
03:40PM 36.2600 -77.9542 355° North 428 493 39,000  Level Washington Center
03:41PM 36.3789 -77.9653 356° North 423 487 39,000  Level Washington Center
03:42PM 36.5036 -77.9769 356° North 415 478 39,000  Level Washington Center
03:43PM 36.6203 -77.9883 356° North 415 478 39,000  Level Washington Center
03:44PM 36.7369 -77.9997 356° North 415 478 39,000  Level Washington Center
03:45PM 36.8556 -78.0111 356° North 421 484 39,000  Level Washington Center
03:46PM 36.9722 -78.0200 357° North 421 484 39,000  Level Washington Center
03:47PM 37.0908 -78.0342 355° North 421 484 39,000  Level Washington Center
03:48PM 37.2094 -78.0458 356° North 421 484 39,000  Level Washington Center
03:49PM 37.3303 -78.0547 357° North 421 484 39,000  Level Washington Center
03:50PM 37.4511 -78.0692 355° North 426 490 39,000  Level Washington Center
03:51PM 37.5739 -78.0811 356° North 426 490 39,000  Level Washington Center
03:52PM 37.6989 -78.0931 356° North 436 502 39,000  Level Washington Center
03:53PM 37.8217 -78.1050 356° North 442 509 39,000  Level Washington Center
03:54PM 37.9422 -78.1169 356° North 442 509 39,000  Level Washington Center
03:55PM 38.0631 -78.1264 356° North 442 509 39,000  Level Washington Center
03:56PM 38.1881 -78.1383 356° North 442 509 39,000  Level Washington Center
03:57PM 38.3086 -78.1506 355° North 442 509 39,000  Level Washington Center
03:58PM 38.4333 -78.1653 355° North 442 509 39,000  Level Washington Center
03:59PM 38.5519 -78.1775 355° North 442 509 39,000  Level Washington Center
04:00PM 38.6603 -78.1892 355° North 442 509 39,000  Level Washington Center
04:01PM 38.7808 -78.2014 355° North 437 503 39,000  Level Washington Center
04:02PM 38.8994 -78.2136 355° North 437 503 39,000  Level Washington Center
04:03PM 39.0222 -78.2261 355° North 437 503 39,000  Level Washington Center
04:04PM 39.1428 -78.2383 356° North 437 503 39,000  Level Washington Center
04:05PM 39.2633 -78.2508 355° North 442 509 39,000  Level Washington Center
04:07PM 39.5561 -78.2839 355° North 422 486 39,000  Level Cleveland Center
04:08PM 39.6753 -78.2958 356° North 427 491 39,000 -60 Level Cleveland Center
04:09PM 39.7839 -78.3058 356° North 427 491 38,900 -600 Descending Cleveland Center
04:10PM 39.9028 -78.3153 357° North 427 491 37,900 -960 Descending Cleveland Center
04:11PM 40.0261 -78.3300 355° North 427 491 37,000 -3,480 Descending Cleveland Center
04:12PM 40.1453 -78.3425 355° North 427 491 31,000 -960 Descending Cleveland Center
04:13PM 40.2642 -78.3547 356° North 427 491 35,100 1,500 Climbing Cleveland Center
04:14PM 40.3856 -78.3669 356° North 427 491 34,100 -1,020 Descending Cleveland Center
04:15PM 40.5025 -78.3794 355° North 422 486 33,100 -1,020 Descending Cleveland Center
04:16PM 40.6172 -78.3922 355° North 422 486 32,100 -1,020 Descending Cleveland Center
04:17PM 40.7300 -78.4019 356° North 415 478 31,100 -1,080 Descending Cleveland Center
04:18PM 40.8556 -78.4172 355° North 406 467 30,000 -600 Descending Cleveland Center
04:19PM 40.9661 -78.4300 355° North 406 467 30,000  Level Cleveland Center
04:20PM 41.0747 -78.4403 356° North 406 467 30,000 -300 Level Cleveland Center
04:21PM 41.1856 -78.4503 356° North 406 467 29,400 -840 Descending Cleveland Center
04:22PM 41.2942 -78.4633 355° North 396 456 28,400 -1,080 Descending Cleveland Center
04:23PM 41.3986 -78.4767 355° North 391 450 27,300 -1,020 Descending Cleveland Center
04:24PM 41.5031 -78.4869 356° North 381 438 26,400 -960 Descending Cleveland Center
04:25PM 41.6075 -78.5003 355° North 381 438 25,400 -1,080 Descending Cleveland Center
04:26PM 41.7119 -78.5081 357° North 376 433 24,300 -1,440 Descending Cleveland Center
04:27PM 41.8103 -78.5217 354° North 364 419 22,600 -1,740 Descending Cleveland Center
04:28PM 41.9042 -78.5325 355° North 352 405 20,900 -1,740 Descending Cleveland Center
04:29PM 41.9961 -78.5436 355° North 342 394 19,200 -1,800 Descending Cleveland Center
04:30PM 42.0817 -78.5519 356° North 342 394 17,400 -1,800 Descending Cleveland Center
04:31PM 42.1714 -78.5603 356° North 337 388 15,700 -1,800 Descending Cleveland Center
04:32PM 42.3333 -78.5667 358° North 310 357 12,800 -1,620 Descending Buffalo TRACON
04:33PM 42.3492 -78.5828 323° Northwest 319 367 12,500 -1,200 Descending Cleveland Center
04:34PM 42.4325 -78.5914 356° North 308 354 11,200 -1,260 Descending Cleveland Center
04:35PM 42.5203 -78.6028 355° North 303 349 10,000 -1,080 Descending Cleveland Center
04:36PM 42.6056 -78.5944 North 303 349 9,100 -1,380 Descending Cleveland Center
04:37PM 42.6972 -78.5775 North 313 360 7,300 -1,620 Descending Cleveland Center
04:38PM 42.7822 -78.5661 North 313 360 6,000 -1,260 Descending Cleveland Center
04:39PM 42.8578 -78.5864 349° North 289 333 4,800 -780 Descending Cleveland Center
04:40PM 42.9144 -78.6158 339° North 258 297 4,500 -360 Descending Cleveland Center
04:40PM 42.9500 -78.6333 340° North 178 205 4,300 -1,080 Descending Buffalo TRACON
04:41PM 42.9833 -78.6500 340° North 119 137 2,800 -1,500 Descending Buffalo TRACON
04:42PM 42.9667 -78.6833 236° Southwest 126 145 1,400 -1,440 Descending Buffalo TRACON
04:44PM 42.9404 -78.7306 233° Southwest  Level Estimated
04:51PM 42.9404 -78.7306 216° Southwest  Level Estimated